sensor_id;sensor_type;location;lat;lon;timestamp;P1;durP1;ratioP1;P2;durP2;ratioP2
21639;SDS011;10981;45.462;10.974;2023-05-10T00:01:32;5.78;;;5.18;;
21639;SDS011;10981;45.462;10.974;2023-05-10T00:04:01;7.13;;;5.30;;
21639;SDS011;10981;45.462;10.974;2023-05-10T00:06:29;6.28;;;5.13;;
21639;SDS011;10981;45.462;10.974;2023-05-10T00:08:58;6.63;;;5.30;;
21639;SDS011;10981;45.462;10.974;2023-05-10T00:11:26;7.95;;;5.57;;
21639;SDS011;10981;45.462;10.974;2023-05-10T00:13:58;8.77;;;6.13;;
21639;SDS011;10981;45.462;10.974;2023-05-10T00:16:26;7.57;;;5.65;;
21639;SDS011;10981;45.462;10.974;2023-05-10T00:18:55;8.00;;;5.68;;
21639;SDS011;10981;45.462;10.974;2023-05-10T00:21:23;11.10;;;7.20;;
21639;SDS011;10981;45.462;10.974;2023-05-10T00:23:51;5.55;;;5.05;;
21639;SDS011;10981;45.462;10.974;2023-05-10T00:26:20;9.77;;;4.65;;
21639;SDS011;10981;45.462;10.974;2023-05-10T00:28:51;7.07;;;4.25;;
21639;SDS011;10981;45.462;10.974;2023-05-10T00:31:20;7.30;;;3.88;;
21639;SDS011;10981;45.462;10.974;2023-05-10T00:33:50;6.75;;;3.97;;
21639;SDS011;10981;45.462;10.974;2023-05-10T00:36:18;4.60;;;3.50;;
21639;SDS011;10981;45.462;10.974;2023-05-10T00:38:46;5.25;;;3.80;;
21639;SDS011;10981;45.462;10.974;2023-05-10T00:41:14;3.65;;;3.17;;
21639;SDS011;10981;45.462;10.974;2023-05-10T00:43:45;6.28;;;4.18;;
21639;SDS011;10981;45.462;10.974;2023-05-10T00:46:14;5.32;;;3.30;;
21639;SDS011;10981;45.462;10.974;2023-05-10T00:48:43;5.30;;;3.30;;
21639;SDS011;10981;45.462;10.974;2023-05-10T00:51:12;4.80;;;3.53;;
21639;SDS011;10981;45.462;10.974;2023-05-10T00:53:40;5.93;;;2.90;;
21639;SDS011;10981;45.462;10.974;2023-05-10T00:56:09;3.80;;;2.70;;
21639;SDS011;10981;45.462;10.974;2023-05-10T00:58:38;4.32;;;3.00;;
21639;SDS011;10981;45.462;10.974;2023-05-10T01:01:08;5.07;;;3.33;;
21639;SDS011;10981;45.462;10.974;2023-05-10T01:03:36;5.05;;;2.83;;
21639;SDS011;10981;45.462;10.974;2023-05-10T01:06:07;4.97;;;2.90;;
21639;SDS011;10981;45.462;10.974;2023-05-10T01:08:36;5.38;;;2.88;;
21639;SDS011;10981;45.462;10.974;2023-05-10T01:11:05;4.40;;;2.58;;
21639;SDS011;10981;45.462;10.974;2023-05-10T01:13:37;3.75;;;2.80;;
21639;SDS011;10981;45.462;10.974;2023-05-10T01:16:08;4.18;;;2.90;;
21639;SDS011;10981;45.462;10.974;2023-05-10T01:18:40;3.85;;;2.78;;
21639;SDS011;10981;45.462;10.974;2023-05-10T01:21:19;5.93;;;2.70;;
21639;SDS011;10981;45.462;10.974;2023-05-10T01:26:48;3.70;;;2.80;;
21639;SDS011;10981;45.462;10.974;2023-05-10T01:29:47;4.43;;;2.90;;
21639;SDS011;10981;45.462;10.974;2023-05-10T01:32:55;7.60;;;2.95;;
21639;SDS011;10981;45.462;10.974;2023-05-10T01:38:18;2.97;;;2.30;;
21639;SDS011;10981;45.462;10.974;2023-05-10T01:43:47;3.22;;;2.67;;
21639;SDS011;10981;45.462;10.974;2023-05-10T01:46:42;7.70;;;2.95;;
21639;SDS011;10981;45.462;10.974;2023-05-10T01:49:21;4.10;;;2.60;;
21639;SDS011;10981;45.462;10.974;2023-05-10T01:51:54;5.18;;;3.35;;
21639;SDS011;10981;45.462;10.974;2023-05-10T01:54:28;3.78;;;2.97;;
21639;SDS011;10981;45.462;10.974;2023-05-10T01:57:03;4.15;;;2.83;;
21639;SDS011;10981;45.462;10.974;2023-05-10T01:59:36;4.03;;;2.63;;
21639;SDS011;10981;45.462;10.974;2023-05-10T02:02:08;5.85;;;2.67;;
21639;SDS011;10981;45.462;10.974;2023-05-10T02:04:39;3.20;;;2.78;;
21639;SDS011;10981;45.462;10.974;2023-05-10T02:07:09;3.60;;;2.80;;
21639;SDS011;10981;45.462;10.974;2023-05-10T02:09:38;4.50;;;3.22;;
21639;SDS011;10981;45.462;10.974;2023-05-10T02:12:11;4.05;;;2.80;;
21639;SDS011;10981;45.462;10.974;2023-05-10T02:14:42;3.17;;;2.85;;
21639;SDS011;10981;45.462;10.974;2023-05-10T02:17:12;4.15;;;3.10;;
21639;SDS011;10981;45.462;10.974;2023-05-10T02:19:41;2.90;;;2.65;;
21639;SDS011;10981;45.462;10.974;2023-05-10T02:22:10;7.10;;;3.00;;
21639;SDS011;10981;45.462;10.974;2023-05-10T02:24:39;4.20;;;2.50;;
21639;SDS011;10981;45.462;10.974;2023-05-10T02:27:08;4.32;;;2.83;;
21639;SDS011;10981;45.462;10.974;2023-05-10T02:29:38;5.97;;;3.20;;
21639;SDS011;10981;45.462;10.974;2023-05-10T02:32:07;5.22;;;2.95;;
21639;SDS011;10981;45.462;10.974;2023-05-10T02:34:38;2.53;;;2.20;;
21639;SDS011;10981;45.462;10.974;2023-05-10T02:37:08;4.53;;;2.65;;
21639;SDS011;10981;45.462;10.974;2023-05-10T02:39:37;3.30;;;2.50;;
21639;SDS011;10981;45.462;10.974;2023-05-10T02:42:15;4.15;;;3.00;;
21639;SDS011;10981;45.462;10.974;2023-05-10T02:44:47;4.78;;;2.83;;
21639;SDS011;10981;45.462;10.974;2023-05-10T02:47:17;4.05;;;2.88;;
21639;SDS011;10981;45.462;10.974;2023-05-10T02:49:47;5.80;;;3.30;;
21639;SDS011;10981;45.462;10.974;2023-05-10T02:52:21;3.35;;;2.78;;
21639;SDS011;10981;45.462;10.974;2023-05-10T02:54:58;3.33;;;3.03;;
21639;SDS011;10981;45.462;10.974;2023-05-10T02:57:34;3.97;;;2.88;;
21639;SDS011;10981;45.462;10.974;2023-05-10T03:00:06;4.32;;;3.13;;
21639;SDS011;10981;45.462;10.974;2023-05-10T03:02:34;6.32;;;3.20;;
21639;SDS011;10981;45.462;10.974;2023-05-10T03:05:03;3.63;;;2.88;;
21639;SDS011;10981;45.462;10.974;2023-05-10T03:07:32;4.20;;;2.78;;
21639;SDS011;10981;45.462;10.974;2023-05-10T03:10:01;4.97;;;3.33;;
21639;SDS011;10981;45.462;10.974;2023-05-10T03:15:37;5.53;;;3.40;;
21639;SDS011;10981;45.462;10.974;2023-05-10T03:18:18;3.83;;;3.22;;
21639;SDS011;10981;45.462;10.974;2023-05-10T03:20:51;5.95;;;4.10;;
21639;SDS011;10981;45.462;10.974;2023-05-10T03:26:01;5.13;;;3.80;;
21639;SDS011;10981;45.462;10.974;2023-05-10T03:28:32;6.63;;;3.78;;
21639;SDS011;10981;45.462;10.974;2023-05-10T03:31:04;6.05;;;3.90;;
21639;SDS011;10981;45.462;10.974;2023-05-10T03:33:34;6.43;;;3.35;;
21639;SDS011;10981;45.462;10.974;2023-05-10T03:36:02;7.45;;;4.25;;
21639;SDS011;10981;45.462;10.974;2023-05-10T03:38:30;4.68;;;3.55;;
21639;SDS011;10981;45.462;10.974;2023-05-10T03:40:59;4.80;;;3.90;;
21639;SDS011;10981;45.462;10.974;2023-05-10T03:43:27;11.18;;;3.75;;
21639;SDS011;10981;45.462;10.974;2023-05-10T03:45:55;7.07;;;4.00;;
21639;SDS011;10981;45.462;10.974;2023-05-10T03:48:23;5.25;;;3.65;;
21639;SDS011;10981;45.462;10.974;2023-05-10T03:50:53;5.65;;;3.88;;
21639;SDS011;10981;45.462;10.974;2023-05-10T03:53:21;7.13;;;3.40;;
21639;SDS011;10981;45.462;10.974;2023-05-10T03:55:50;6.88;;;3.50;;
21639;SDS011;10981;45.462;10.974;2023-05-10T03:58:18;4.07;;;3.65;;
21639;SDS011;10981;45.462;10.974;2023-05-10T04:00:47;5.30;;;3.60;;
21639;SDS011;10981;45.462;10.974;2023-05-10T04:03:15;8.23;;;3.83;;
21639;SDS011;10981;45.462;10.974;2023-05-10T04:05:43;5.00;;;3.65;;
21639;SDS011;10981;45.462;10.974;2023-05-10T04:08:12;7.45;;;3.75;;
21639;SDS011;10981;45.462;10.974;2023-05-10T04:10:41;5.65;;;3.92;;
21639;SDS011;10981;45.462;10.974;2023-05-10T04:13:10;4.97;;;3.53;;
21639;SDS011;10981;45.462;10.974;2023-05-10T04:15:39;8.48;;;3.80;;
21639;SDS011;10981;45.462;10.974;2023-05-10T04:18:07;4.07;;;3.28;;
21639;SDS011;10981;45.462;10.974;2023-05-10T04:20:35;7.85;;;4.10;;
21639;SDS011;10981;45.462;10.974;2023-05-10T04:23:03;5.57;;;3.53;;
21639;SDS011;10981;45.462;10.974;2023-05-10T04:25:33;4.20;;;3.45;;
21639;SDS011;10981;45.462;10.974;2023-05-10T04:28:02;6.60;;;3.92;;
21639;SDS011;10981;45.462;10.974;2023-05-10T04:30:30;4.78;;;3.95;;
21639;SDS011;10981;45.462;10.974;2023-05-10T04:32:59;5.65;;;3.60;;
21639;SDS011;10981;45.462;10.974;2023-05-10T04:35:28;3.90;;;3.50;;
21639;SDS011;10981;45.462;10.974;2023-05-10T04:37:57;4.60;;;3.13;;
21639;SDS011;10981;45.462;10.974;2023-05-10T04:40:25;5.70;;;3.75;;
21639;SDS011;10981;45.462;10.974;2023-05-10T04:42:54;4.20;;;3.13;;
21639;SDS011;10981;45.462;10.974;2023-05-10T04:45:22;6.35;;;3.05;;
21639;SDS011;10981;45.462;10.974;2023-05-10T04:47:50;5.05;;;3.60;;
21639;SDS011;10981;45.462;10.974;2023-05-10T04:50:19;4.47;;;3.22;;
21639;SDS011;10981;45.462;10.974;2023-05-10T04:52:47;4.93;;;3.20;;
21639;SDS011;10981;45.462;10.974;2023-05-10T04:55:15;4.28;;;3.42;;
21639;SDS011;10981;45.462;10.974;2023-05-10T04:57:43;5.32;;;3.83;;
21639;SDS011;10981;45.462;10.974;2023-05-10T05:00:12;8.40;;;3.53;;
21639;SDS011;10981;45.462;10.974;2023-05-10T05:02:44;4.60;;;2.78;;
21639;SDS011;10981;45.462;10.974;2023-05-10T05:05:13;7.45;;;3.38;;
21639;SDS011;10981;45.462;10.974;2023-05-10T05:07:41;9.57;;;3.65;;
21639;SDS011;10981;45.462;10.974;2023-05-10T05:10:09;4.30;;;3.15;;
21639;SDS011;10981;45.462;10.974;2023-05-10T05:12:37;6.82;;;3.33;;
21639;SDS011;10981;45.462;10.974;2023-05-10T05:15:06;5.53;;;3.60;;
21639;SDS011;10981;45.462;10.974;2023-05-10T05:17:36;5.97;;;3.13;;
21639;SDS011;10981;45.462;10.974;2023-05-10T05:20:04;3.67;;;3.28;;
21639;SDS011;10981;45.462;10.974;2023-05-10T05:22:33;4.35;;;3.03;;
21639;SDS011;10981;45.462;10.974;2023-05-10T05:25:02;6.03;;;3.65;;
21639;SDS011;10981;45.462;10.974;2023-05-10T05:27:31;5.18;;;3.53;;
21639;SDS011;10981;45.462;10.974;2023-05-10T05:29:59;4.03;;;3.25;;
21639;SDS011;10981;45.462;10.974;2023-05-10T05:32:30;4.30;;;3.08;;
21639;SDS011;10981;45.462;10.974;2023-05-10T05:34:58;7.20;;;3.80;;
21639;SDS011;10981;45.462;10.974;2023-05-10T05:37:26;4.93;;;3.72;;
21639;SDS011;10981;45.462;10.974;2023-05-10T05:39:55;7.50;;;3.97;;
21639;SDS011;10981;45.462;10.974;2023-05-10T05:42:23;6.30;;;3.45;;
21639;SDS011;10981;45.462;10.974;2023-05-10T05:44:51;6.07;;;3.75;;
21639;SDS011;10981;45.462;10.974;2023-05-10T05:47:19;5.85;;;3.55;;
21639;SDS011;10981;45.462;10.974;2023-05-10T05:49:48;6.13;;;3.38;;
21639;SDS011;10981;45.462;10.974;2023-05-10T05:52:16;7.35;;;4.07;;
21639;SDS011;10981;45.462;10.974;2023-05-10T05:54:44;9.10;;;4.05;;
21639;SDS011;10981;45.462;10.974;2023-05-10T05:57:13;5.32;;;3.25;;
21639;SDS011;10981;45.462;10.974;2023-05-10T05:59:41;5.43;;;3.53;;
21639;SDS011;10981;45.462;10.974;2023-05-10T06:02:10;5.03;;;3.95;;
21639;SDS011;10981;45.462;10.974;2023-05-10T06:04:39;4.15;;;3.22;;
21639;SDS011;10981;45.462;10.974;2023-05-10T06:07:10;5.63;;;3.30;;
21639;SDS011;10981;45.462;10.974;2023-05-10T06:09:39;4.25;;;3.47;;
21639;SDS011;10981;45.462;10.974;2023-05-10T06:12:07;3.65;;;2.92;;
21639;SDS011;10981;45.462;10.974;2023-05-10T06:14:35;4.50;;;3.05;;
21639;SDS011;10981;45.462;10.974;2023-05-10T06:17:03;4.90;;;3.58;;
21639;SDS011;10981;45.462;10.974;2023-05-10T06:19:32;5.50;;;3.22;;
21639;SDS011;10981;45.462;10.974;2023-05-10T06:22:01;4.03;;;3.10;;
21639;SDS011;10981;45.462;10.974;2023-05-10T06:24:29;5.18;;;3.60;;
21639;SDS011;10981;45.462;10.974;2023-05-10T06:26:57;6.47;;;3.60;;
21639;SDS011;10981;45.462;10.974;2023-05-10T06:29:27;8.00;;;3.13;;
21639;SDS011;10981;45.462;10.974;2023-05-10T06:31:55;5.40;;;3.50;;
21639;SDS011;10981;45.462;10.974;2023-05-10T06:34:24;7.78;;;4.78;;
21639;SDS011;10981;45.462;10.974;2023-05-10T06:36:52;4.45;;;3.47;;
21639;SDS011;10981;45.462;10.974;2023-05-10T06:39:21;4.35;;;3.15;;
21639;SDS011;10981;45.462;10.974;2023-05-10T06:41:49;3.28;;;2.83;;
21639;SDS011;10981;45.462;10.974;2023-05-10T06:44:19;3.17;;;2.88;;
21639;SDS011;10981;45.462;10.974;2023-05-10T06:46:47;5.05;;;3.35;;
21639;SDS011;10981;45.462;10.974;2023-05-10T06:49:15;4.20;;;2.95;;
21639;SDS011;10981;45.462;10.974;2023-05-10T06:51:43;4.75;;;2.72;;
21639;SDS011;10981;45.462;10.974;2023-05-10T06:54:12;7.10;;;3.30;;
21639;SDS011;10981;45.462;10.974;2023-05-10T06:56:40;5.20;;;3.10;;
21639;SDS011;10981;45.462;10.974;2023-05-10T06:59:08;4.68;;;2.88;;
21639;SDS011;10981;45.462;10.974;2023-05-10T07:01:37;4.30;;;3.03;;
21639;SDS011;10981;45.462;10.974;2023-05-10T07:04:05;4.30;;;3.45;;
21639;SDS011;10981;45.462;10.974;2023-05-10T07:06:34;4.88;;;2.97;;
21639;SDS011;10981;45.462;10.974;2023-05-10T07:09:03;5.30;;;3.28;;
21639;SDS011;10981;45.462;10.974;2023-05-10T07:11:31;4.00;;;3.00;;
21639;SDS011;10981;45.462;10.974;2023-05-10T07:13:59;3.45;;;3.15;;
21639;SDS011;10981;45.462;10.974;2023-05-10T07:16:28;5.15;;;3.33;;
21639;SDS011;10981;45.462;10.974;2023-05-10T07:18:56;4.45;;;3.65;;
21639;SDS011;10981;45.462;10.974;2023-05-10T07:21:24;5.03;;;3.28;;
21639;SDS011;10981;45.462;10.974;2023-05-10T07:23:55;4.25;;;3.03;;
21639;SDS011;10981;45.462;10.974;2023-05-10T07:26:24;5.72;;;3.70;;
21639;SDS011;10981;45.462;10.974;2023-05-10T07:28:52;5.68;;;3.15;;
21639;SDS011;10981;45.462;10.974;2023-05-10T07:31:21;5.82;;;2.85;;
21639;SDS011;10981;45.462;10.974;2023-05-10T07:33:49;4.22;;;2.88;;
21639;SDS011;10981;45.462;10.974;2023-05-10T07:36:17;6.00;;;3.35;;
21639;SDS011;10981;45.462;10.974;2023-05-10T07:38:45;9.95;;;3.63;;
21639;SDS011;10981;45.462;10.974;2023-05-10T07:41:14;4.50;;;3.33;;
21639;SDS011;10981;45.462;10.974;2023-05-10T07:43:42;4.97;;;3.35;;
21639;SDS011;10981;45.462;10.974;2023-05-10T07:46:11;3.90;;;3.50;;
21639;SDS011;10981;45.462;10.974;2023-05-10T07:48:39;4.13;;;3.22;;
21639;SDS011;10981;45.462;10.974;2023-05-10T07:51:08;8.00;;;4.07;;
21639;SDS011;10981;45.462;10.974;2023-05-10T07:53:37;6.25;;;3.75;;
21639;SDS011;10981;45.462;10.974;2023-05-10T07:56:24;5.28;;;4.28;;
21639;SDS011;10981;45.462;10.974;2023-05-10T08:01:31;6.40;;;3.60;;
21639;SDS011;10981;45.462;10.974;2023-05-10T08:04:01;4.63;;;3.63;;
21639;SDS011;10981;45.462;10.974;2023-05-10T08:06:30;6.78;;;4.10;;
21639;SDS011;10981;45.462;10.974;2023-05-10T08:08:58;5.63;;;3.63;;
21639;SDS011;10981;45.462;10.974;2023-05-10T08:11:26;5.38;;;4.10;;
21639;SDS011;10981;45.462;10.974;2023-05-10T08:13:54;6.75;;;4.65;;
21639;SDS011;10981;45.462;10.974;2023-05-10T08:16:23;6.97;;;3.95;;
21639;SDS011;10981;45.462;10.974;2023-05-10T08:18:51;6.93;;;4.00;;
21639;SDS011;10981;45.462;10.974;2023-05-10T08:21:22;9.57;;;4.30;;
21639;SDS011;10981;45.462;10.974;2023-05-10T08:23:50;5.82;;;3.75;;
21639;SDS011;10981;45.462;10.974;2023-05-10T08:26:18;7.88;;;4.60;;
21639;SDS011;10981;45.462;10.974;2023-05-10T08:28:48;10.73;;;3.72;;
21639;SDS011;10981;45.462;10.974;2023-05-10T08:31:17;8.50;;;4.00;;
21639;SDS011;10981;45.462;10.974;2023-05-10T08:33:45;5.38;;;3.92;;
21639;SDS011;10981;45.462;10.974;2023-05-10T08:36:13;5.18;;;3.75;;
21639;SDS011;10981;45.462;10.974;2023-05-10T08:38:53;6.10;;;3.92;;
21639;SDS011;10981;45.462;10.974;2023-05-10T08:41:22;6.30;;;3.85;;
21639;SDS011;10981;45.462;10.974;2023-05-10T08:43:53;9.65;;;4.55;;
21639;SDS011;10981;45.462;10.974;2023-05-10T08:46:22;8.40;;;4.13;;
21639;SDS011;10981;45.462;10.974;2023-05-10T08:48:51;5.28;;;3.80;;
21639;SDS011;10981;45.462;10.974;2023-05-10T08:51:24;6.88;;;3.95;;
21639;SDS011;10981;45.462;10.974;2023-05-10T08:53:54;6.15;;;4.38;;
21639;SDS011;10981;45.462;10.974;2023-05-10T08:56:23;7.95;;;3.63;;
21639;SDS011;10981;45.462;10.974;2023-05-10T08:58:51;6.85;;;4.35;;
21639;SDS011;10981;45.462;10.974;2023-05-10T09:01:20;5.80;;;4.45;;
21639;SDS011;10981;45.462;10.974;2023-05-10T09:03:49;4.75;;;4.25;;
21639;SDS011;10981;45.462;10.974;2023-05-10T09:06:18;9.02;;;4.22;;
21639;SDS011;10981;45.462;10.974;2023-05-10T09:08:47;10.35;;;4.05;;
21639;SDS011;10981;45.462;10.974;2023-05-10T09:11:16;4.90;;;4.10;;
21639;SDS011;10981;45.462;10.974;2023-05-10T09:13:44;7.03;;;3.92;;
21639;SDS011;10981;45.462;10.974;2023-05-10T09:16:15;4.32;;;3.60;;
21639;SDS011;10981;45.462;10.974;2023-05-10T09:18:48;9.02;;;4.40;;
21639;SDS011;10981;45.462;10.974;2023-05-10T09:21:17;6.00;;;4.53;;
21639;SDS011;10981;45.462;10.974;2023-05-10T09:23:47;5.55;;;4.30;;
21639;SDS011;10981;45.462;10.974;2023-05-10T09:26:17;4.85;;;4.28;;
21639;SDS011;10981;45.462;10.974;2023-05-10T09:31:23;5.93;;;3.80;;
21639;SDS011;10981;45.462;10.974;2023-05-10T09:33:53;8.55;;;4.25;;
21639;SDS011;10981;45.462;10.974;2023-05-10T09:36:21;6.57;;;4.18;;
21639;SDS011;10981;45.462;10.974;2023-05-10T09:38:50;4.97;;;4.13;;
21639;SDS011;10981;45.462;10.974;2023-05-10T09:41:23;5.82;;;3.50;;
21639;SDS011;10981;45.462;10.974;2023-05-10T09:43:55;4.57;;;3.92;;
21639;SDS011;10981;45.462;10.974;2023-05-10T09:46:23;5.90;;;4.38;;
21639;SDS011;10981;45.462;10.974;2023-05-10T09:48:53;8.20;;;5.18;;
21639;SDS011;10981;45.462;10.974;2023-05-10T09:51:21;6.07;;;4.47;;
21639;SDS011;10981;45.462;10.974;2023-05-10T09:56:39;6.03;;;5.32;;
21639;SDS011;10981;45.462;10.974;2023-05-10T09:59:10;5.68;;;4.82;;
21639;SDS011;10981;45.462;10.974;2023-05-10T10:01:39;5.50;;;4.50;;
21639;SDS011;10981;45.462;10.974;2023-05-10T10:04:09;7.53;;;4.45;;
21639;SDS011;10981;45.462;10.974;2023-05-10T10:06:40;6.18;;;4.80;;
21639;SDS011;10981;45.462;10.974;2023-05-10T10:09:09;9.93;;;5.55;;
21639;SDS011;10981;45.462;10.974;2023-05-10T10:11:38;6.57;;;4.95;;
21639;SDS011;10981;45.462;10.974;2023-05-10T10:14:08;8.27;;;5.60;;
21639;SDS011;10981;45.462;10.974;2023-05-10T10:16:38;6.57;;;5.70;;
21639;SDS011;10981;45.462;10.974;2023-05-10T10:19:25;7.47;;;5.57;;
21639;SDS011;10981;45.462;10.974;2023-05-10T10:21:55;7.00;;;5.78;;
21639;SDS011;10981;45.462;10.974;2023-05-10T10:24:23;6.50;;;5.88;;
21639;SDS011;10981;45.462;10.974;2023-05-10T10:26:52;5.65;;;5.07;;
21639;SDS011;10981;45.462;10.974;2023-05-10T10:32:12;6.68;;;5.75;;
21639;SDS011;10981;45.462;10.974;2023-05-10T10:34:47;5.90;;;5.30;;
21639;SDS011;10981;45.462;10.974;2023-05-10T10:37:17;5.53;;;4.93;;
21639;SDS011;10981;45.462;10.974;2023-05-10T10:39:47;6.50;;;5.40;;
21639;SDS011;10981;45.462;10.974;2023-05-10T10:45:23;8.23;;;5.00;;
21639;SDS011;10981;45.462;10.974;2023-05-10T10:48:35;6.93;;;4.72;;
21639;SDS011;10981;45.462;10.974;2023-05-10T10:50:55;7.57;;;5.60;;
21639;SDS011;10981;45.462;10.974;2023-05-10T10:53:27;6.00;;;5.25;;
21639;SDS011;10981;45.462;10.974;2023-05-10T10:56:04;5.40;;;4.57;;
21639;SDS011;10981;45.462;10.974;2023-05-10T10:58:42;8.00;;;4.93;;
21639;SDS011;10981;45.462;10.974;2023-05-10T11:01:20;7.07;;;5.28;;
21639;SDS011;10981;45.462;10.974;2023-05-10T11:04:35;8.38;;;5.32;;
21639;SDS011;10981;45.462;10.974;2023-05-10T11:06:37;5.97;;;4.90;;
21639;SDS011;10981;45.462;10.974;2023-05-10T11:09:07;6.22;;;4.88;;
21639;SDS011;10981;45.462;10.974;2023-05-10T11:11:53;7.00;;;4.97;;
21639;SDS011;10981;45.462;10.974;2023-05-10T11:14:22;5.38;;;4.75;;
21639;SDS011;10981;45.462;10.974;2023-05-10T11:16:51;5.82;;;4.13;;
21639;SDS011;10981;45.462;10.974;2023-05-10T11:19:19;5.47;;;4.70;;
21639;SDS011;10981;45.462;10.974;2023-05-10T11:21:51;5.88;;;5.18;;
21639;SDS011;10981;45.462;10.974;2023-05-10T11:24:55;6.13;;;4.20;;
21639;SDS011;10981;45.462;10.974;2023-05-10T11:27:25;5.30;;;4.28;;
21639;SDS011;10981;45.462;10.974;2023-05-10T11:29:53;4.80;;;4.38;;
21639;SDS011;10981;45.462;10.974;2023-05-10T11:32:22;7.35;;;4.30;;
21639;SDS011;10981;45.462;10.974;2023-05-10T11:34:50;6.03;;;4.68;;
21639;SDS011;10981;45.462;10.974;2023-05-10T11:37:18;7.03;;;4.72;;
21639;SDS011;10981;45.462;10.974;2023-05-10T11:39:47;6.00;;;4.90;;
21639;SDS011;10981;45.462;10.974;2023-05-10T11:42:15;9.27;;;4.93;;
21639;SDS011;10981;45.462;10.974;2023-05-10T11:44:45;5.45;;;4.28;;
21639;SDS011;10981;45.462;10.974;2023-05-10T11:47:14;9.82;;;5.05;;
21639;SDS011;10981;45.462;10.974;2023-05-10T11:49:45;7.50;;;4.82;;
21639;SDS011;10981;45.462;10.974;2023-05-10T11:52:14;6.37;;;4.70;;
21639;SDS011;10981;45.462;10.974;2023-05-10T11:54:50;5.47;;;4.85;;
21639;SDS011;10981;45.462;10.974;2023-05-10T11:57:20;6.85;;;5.22;;
21639;SDS011;10981;45.462;10.974;2023-05-10T11:59:53;8.27;;;5.15;;
21639;SDS011;10981;45.462;10.974;2023-05-10T12:02:23;6.95;;;5.18;;
21639;SDS011;10981;45.462;10.974;2023-05-10T12:04:52;6.85;;;5.10;;
21639;SDS011;10981;45.462;10.974;2023-05-10T12:07:22;6.85;;;5.20;;
21639;SDS011;10981;45.462;10.974;2023-05-10T12:10:06;5.65;;;4.80;;
21639;SDS011;10981;45.462;10.974;2023-05-10T12:12:36;7.53;;;5.22;;
21639;SDS011;10981;45.462;10.974;2023-05-10T12:15:06;7.85;;;4.90;;
21639;SDS011;10981;45.462;10.974;2023-05-10T12:17:58;6.57;;;4.70;;
21639;SDS011;10981;45.462;10.974;2023-05-10T12:20:27;8.60;;;4.88;;
21639;SDS011;10981;45.462;10.974;2023-05-10T12:22:56;7.00;;;5.25;;
21639;SDS011;10981;45.462;10.974;2023-05-10T12:25:30;5.85;;;4.65;;
21639;SDS011;10981;45.462;10.974;2023-05-10T12:28:03;12.60;;;4.45;;
21639;SDS011;10981;45.462;10.974;2023-05-10T12:30:36;5.70;;;3.90;;
21639;SDS011;10981;45.462;10.974;2023-05-10T12:33:09;9.48;;;3.85;;
21639;SDS011;10981;45.462;10.974;2023-05-10T12:38:29;6.55;;;4.00;;
21639;SDS011;10981;45.462;10.974;2023-05-10T12:41:06;7.10;;;3.85;;
21639;SDS011;10981;45.462;10.974;2023-05-10T12:43:36;5.22;;;3.97;;
21639;SDS011;10981;45.462;10.974;2023-05-10T12:48:36;4.25;;;3.70;;
21639;SDS011;10981;45.462;10.974;2023-05-10T12:51:05;8.63;;;3.65;;
21639;SDS011;10981;45.462;10.974;2023-05-10T12:53:39;6.25;;;3.80;;
21639;SDS011;10981;45.462;10.974;2023-05-10T12:56:12;4.63;;;3.47;;
21639;SDS011;10981;45.462;10.974;2023-05-10T12:58:40;4.13;;;3.72;;
21639;SDS011;10981;45.462;10.974;2023-05-10T13:01:08;4.53;;;3.83;;
21639;SDS011;10981;45.462;10.974;2023-05-10T13:03:37;5.45;;;3.97;;
21639;SDS011;10981;45.462;10.974;2023-05-10T13:06:05;6.53;;;3.88;;
21639;SDS011;10981;45.462;10.974;2023-05-10T13:08:33;3.65;;;3.33;;
21639;SDS011;10981;45.462;10.974;2023-05-10T13:11:02;4.45;;;3.33;;
21639;SDS011;10981;45.462;10.974;2023-05-10T13:13:30;5.95;;;5.00;;
21639;SDS011;10981;45.462;10.974;2023-05-10T13:15:58;4.80;;;4.30;;
21639;SDS011;10981;45.462;10.974;2023-05-10T13:18:27;5.70;;;4.10;;
21639;SDS011;10981;45.462;10.974;2023-05-10T13:20:55;6.35;;;4.57;;
21639;SDS011;10981;45.462;10.974;2023-05-10T13:23:23;7.07;;;3.70;;
21639;SDS011;10981;45.462;10.974;2023-05-10T13:25:51;4.28;;;3.60;;
21639;SDS011;10981;45.462;10.974;2023-05-10T13:28:20;4.15;;;3.45;;
21639;SDS011;10981;45.462;10.974;2023-05-10T13:30:48;4.90;;;4.40;;
21639;SDS011;10981;45.462;10.974;2023-05-10T13:33:16;6.47;;;4.50;;
21639;SDS011;10981;45.462;10.974;2023-05-10T13:35:44;7.00;;;4.78;;
21639;SDS011;10981;45.462;10.974;2023-05-10T13:38:13;5.82;;;4.45;;
21639;SDS011;10981;45.462;10.974;2023-05-10T13:40:41;6.97;;;4.78;;
21639;SDS011;10981;45.462;10.974;2023-05-10T13:43:09;6.47;;;3.72;;
21639;SDS011;10981;45.462;10.974;2023-05-10T13:45:37;3.10;;;2.70;;
21639;SDS011;10981;45.462;10.974;2023-05-10T13:48:06;4.35;;;3.50;;
21639;SDS011;10981;45.462;10.974;2023-05-10T13:50:34;4.63;;;3.17;;
21639;SDS011;10981;45.462;10.974;2023-05-10T13:53:02;7.97;;;3.63;;
21639;SDS011;10981;45.462;10.974;2023-05-10T13:55:30;5.47;;;3.50;;
21639;SDS011;10981;45.462;10.974;2023-05-10T13:57:59;5.32;;;3.17;;
21639;SDS011;10981;45.462;10.974;2023-05-10T14:00:27;5.72;;;3.85;;
21639;SDS011;10981;45.462;10.974;2023-05-10T14:02:55;4.72;;;3.03;;
21639;SDS011;10981;45.462;10.974;2023-05-10T14:05:23;3.60;;;3.28;;
21639;SDS011;10981;45.462;10.974;2023-05-10T14:07:52;5.97;;;3.67;;
21639;SDS011;10981;45.462;10.974;2023-05-10T14:10:21;5.95;;;3.67;;
21639;SDS011;10981;45.462;10.974;2023-05-10T14:12:49;3.83;;;3.42;;
21639;SDS011;10981;45.462;10.974;2023-05-10T14:15:17;3.85;;;3.55;;
21639;SDS011;10981;45.462;10.974;2023-05-10T14:17:46;6.85;;;4.43;;
21639;SDS011;10981;45.462;10.974;2023-05-10T14:20:15;4.95;;;4.47;;
21639;SDS011;10981;45.462;10.974;2023-05-10T14:22:44;4.97;;;4.20;;
21639;SDS011;10981;45.462;10.974;2023-05-10T14:25:13;4.55;;;3.75;;
21639;SDS011;10981;45.462;10.974;2023-05-10T14:27:42;6.63;;;4.05;;
21639;SDS011;10981;45.462;10.974;2023-05-10T14:30:10;6.85;;;5.07;;
21639;SDS011;10981;45.462;10.974;2023-05-10T14:32:38;8.55;;;3.78;;
21639;SDS011;10981;45.462;10.974;2023-05-10T14:35:07;4.72;;;3.85;;
21639;SDS011;10981;45.462;10.974;2023-05-10T14:37:39;6.47;;;3.63;;
21639;SDS011;10981;45.462;10.974;2023-05-10T14:40:07;5.07;;;3.88;;
21639;SDS011;10981;45.462;10.974;2023-05-10T14:42:36;3.40;;;3.10;;
21639;SDS011;10981;45.462;10.974;2023-05-10T14:45:04;4.25;;;3.13;;
21639;SDS011;10981;45.462;10.974;2023-05-10T14:47:33;4.28;;;3.53;;
21639;SDS011;10981;45.462;10.974;2023-05-10T14:50:01;4.80;;;4.10;;
21639;SDS011;10981;45.462;10.974;2023-05-10T14:52:29;4.78;;;3.75;;
21639;SDS011;10981;45.462;10.974;2023-05-10T14:55:00;3.80;;;2.90;;
21639;SDS011;10981;45.462;10.974;2023-05-10T14:57:29;2.50;;;2.30;;
21639;SDS011;10981;45.462;10.974;2023-05-10T14:59:57;6.25;;;4.22;;
21639;SDS011;10981;45.462;10.974;2023-05-10T15:02:26;5.97;;;3.90;;
21639;SDS011;10981;45.462;10.974;2023-05-10T15:04:54;4.65;;;3.85;;
21639;SDS011;10981;45.462;10.974;2023-05-10T15:07:23;5.47;;;3.80;;
21639;SDS011;10981;45.462;10.974;2023-05-10T15:09:51;5.32;;;3.95;;
21639;SDS011;10981;45.462;10.974;2023-05-10T15:12:21;5.57;;;4.45;;
21639;SDS011;10981;45.462;10.974;2023-05-10T15:14:49;4.20;;;3.78;;
21639;SDS011;10981;45.462;10.974;2023-05-10T15:17:17;4.50;;;3.95;;
21639;SDS011;10981;45.462;10.974;2023-05-10T15:19:45;5.35;;;3.58;;
21639;SDS011;10981;45.462;10.974;2023-05-10T15:22:14;5.18;;;4.07;;
21639;SDS011;10981;45.462;10.974;2023-05-10T15:24:42;6.07;;;4.22;;